Česky Dansk Deutsch English Español Suomi Français Magyar Italiano Nederlands norsk Polski Português svenska Türkçe

 

Het Weer

Roenne (Denemarken)

23:20, 21 augustus 2016 (GMT)

NWNNE
WE
SWSSE
Home            
Roenne Malmo / Sturup Kristianstad / Everod Koszalin Heringsdorf Ronneby Koebenhavn / Kastrup Ljungbyhed Ljungbyhed, Ljungbyhed, SWE-AFB Slupsk Vaerloese Koebenhavn / Roskilde Angelholm Szczecin Trollenhagen Avno Danish Air Force Base Vaxjo Laage Kalmar Maribo Lufthavn Halmstad Swedish Air Force Base Gdansk-Rebiechowo Hagshult

Om een weerknop op uw website of weblog te plaatsen, copieer onderstaande code en plak die in uw pagina. In het eerste vakje staat HTML-code, in het tweede vakje UBB-code.


Add to Google

Details

Wind speed:3 bf, 7 kn, 3.6 m/s, 8.1 miles/h, 13.0 km/h
Wind direction:WSW, 250°
Temperature:17°C, 63°F
Dew-point:15°C, 59°F
Atmospheric pressure:1018 hPa, 763.6 mmHg, 30.06 inHg, 1.005 atm
Relative humidity:88.0 %
METAR:EKRN 212320Z AUTO 25007KT 9999NDV NCD 17/15 Q1018

Snelkoppelingen

Actuele weersinformatie van de hele wereld. Voeg locaties toe met het plus (+) symbool. Deze snelkoppelingen kunnen worden toegevoegd aan Google.

Lid van de Technetium groep

website free tracking
StatCounter NetStat W3C Validator

05-10-2022 04:28:30
astro.technetium.be money.technetium.be phote.technetium.be tafeltennistafel.technetium.be www.ligfiets.net